createdAt,value
2018-06-21T00:00:42.015Z,4.97
2018-06-21T00:03:10.455Z,4.77
2018-06-21T00:05:38.894Z,4.40
2018-06-21T00:08:07.350Z,4.00
2018-06-21T00:10:35.873Z,4.13
2018-06-21T00:13:04.329Z,3.43
2018-06-21T00:15:32.741Z,3.30
2018-06-21T00:18:01.132Z,3.90
2018-06-21T00:20:29.386Z,3.67
2018-06-21T00:22:57.793Z,4.07
2018-06-21T00:25:26.237Z,3.60
2018-06-21T00:27:54.652Z,3.50
2018-06-21T00:30:23.093Z,3.67
2018-06-21T00:32:51.713Z,4.10
2018-06-21T00:35:20.223Z,3.80
2018-06-21T00:37:48.671Z,3.80
2018-06-21T00:40:17.151Z,4.60
2018-06-21T00:42:45.591Z,4.00
2018-06-21T00:45:14.050Z,3.63
2018-06-21T00:47:42.471Z,3.77
2018-06-21T00:50:10.870Z,4.03
2018-06-21T00:52:39.386Z,4.00
2018-06-21T00:55:07.804Z,3.93
2018-06-21T00:57:36.201Z,4.30
2018-06-21T01:00:04.344Z,4.00
2018-06-21T01:02:32.742Z,4.50
2018-06-21T01:05:00.892Z,4.20
2018-06-21T01:07:29.292Z,3.87
2018-06-21T01:09:57.706Z,3.80
2018-06-21T01:12:25.931Z,4.53
2018-06-21T01:14:54.991Z,5.00
2018-06-21T01:17:23.500Z,4.17
2018-06-21T01:19:51.912Z,4.57
2018-06-21T01:22:21.414Z,4.50
2018-06-21T01:24:49.805Z,5.00
2018-06-21T01:27:18.217Z,5.40
2018-06-21T01:29:46.325Z,5.30
2018-06-21T01:32:14.742Z,5.47
2018-06-21T01:34:43.166Z,5.37
2018-06-21T01:37:11.619Z,4.57
2018-06-21T01:39:40.079Z,4.53
2018-06-21T01:42:08.549Z,4.27
2018-06-21T01:44:37.042Z,4.20
2018-06-21T01:47:05.599Z,4.37
2018-06-21T01:49:34.016Z,3.70
2018-06-21T01:52:02.435Z,4.73
2018-06-21T01:54:30.970Z,4.50
2018-06-21T01:56:59.882Z,4.77
2018-06-21T01:59:28.302Z,4.33
2018-06-21T02:01:56.712Z,4.27
2018-06-21T02:04:25.158Z,4.50
2018-06-21T02:06:53.658Z,4.50
2018-06-21T02:09:22.106Z,4.87
2018-06-21T02:11:50.624Z,4.20
2018-06-21T02:14:19.194Z,4.50
2018-06-21T02:16:47.640Z,3.83
2018-06-21T02:19:16.066Z,3.90
2018-06-21T02:21:44.531Z,4.27
2018-06-21T02:24:12.953Z,4.10
2018-06-21T02:26:41.405Z,3.33
2018-06-21T02:29:09.842Z,3.70
2018-06-21T02:31:38.623Z,3.80
2018-06-21T02:34:07.484Z,3.97
2018-06-21T02:36:35.992Z,4.50
2018-06-21T02:39:06.499Z,4.00
2018-06-21T02:41:35.028Z,2.90
2018-06-21T02:44:03.227Z,4.00
2018-06-21T02:46:31.689Z,3.30
2018-06-21T02:49:00.088Z,4.23
2018-06-21T02:51:28.254Z,3.60
2018-06-21T02:53:56.659Z,3.40
2018-06-21T02:56:25.074Z,3.20
2018-06-21T02:58:53.616Z,3.27
2018-06-21T03:01:22.049Z,3.33
2018-06-21T03:03:50.522Z,3.17
2018-06-21T03:06:18.696Z,3.30
2018-06-21T03:08:47.165Z,3.03
2018-06-21T03:11:15.590Z,4.40
2018-06-21T03:13:43.990Z,3.60
2018-06-21T03:16:12.437Z,3.00
2018-06-21T03:18:40.926Z,3.07
2018-06-21T03:21:09.332Z,2.77
2018-06-21T03:23:37.748Z,2.67
2018-06-21T03:26:05.880Z,3.00
2018-06-21T03:28:34.302Z,3.30
2018-06-21T03:31:02.773Z,3.70
2018-06-21T03:33:31.205Z,3.03
2018-06-21T03:35:59.367Z,3.30
2018-06-21T03:38:27.810Z,3.60
2018-06-21T03:40:56.267Z,2.70
2018-06-21T03:43:24.703Z,4.10
2018-06-21T03:45:53.121Z,3.77
2018-06-21T03:48:21.533Z,4.20
2018-06-21T03:50:50.029Z,3.80
2018-06-21T03:53:18.490Z,3.90
2018-06-21T03:55:47.033Z,3.27
2018-06-21T03:58:15.493Z,4.10
2018-06-21T04:00:43.929Z,3.60
2018-06-21T04:03:12.688Z,4.10
2018-06-21T04:05:41.243Z,4.00
2018-06-21T04:08:09.705Z,3.93
2018-06-21T04:10:38.111Z,4.30
2018-06-21T04:13:06.618Z,4.10
2018-06-21T04:15:35.091Z,4.23
2018-06-21T04:18:03.539Z,4.30
2018-06-21T04:20:32.000Z,3.90
2018-06-21T04:23:00.472Z,4.50
2018-06-21T04:25:28.932Z,4.07
2018-06-21T04:27:57.473Z,4.03
2018-06-21T04:30:25.660Z,4.30
2018-06-21T04:32:54.179Z,4.37
2018-06-21T04:35:22.752Z,4.10
2018-06-21T04:37:51.266Z,3.90
2018-06-21T04:40:19.712Z,4.30
2018-06-21T04:42:48.181Z,4.00
2018-06-21T04:45:16.302Z,4.40
2018-06-21T04:47:44.763Z,4.37
2018-06-21T04:50:13.316Z,4.30
2018-06-21T04:52:42.003Z,5.30
2018-06-21T04:55:10.417Z,5.17
2018-06-21T04:57:38.883Z,5.10
2018-06-21T05:00:07.407Z,4.50
2018-06-21T05:02:35.863Z,4.33
2018-06-21T05:05:04.444Z,5.33
2018-06-21T05:07:33.544Z,5.00
2018-06-21T05:10:02.012Z,5.10
2018-06-21T05:12:30.454Z,3.90
2018-06-21T05:14:58.984Z,4.50
2018-06-21T05:17:27.562Z,3.83
2018-06-21T05:19:56.535Z,5.27
2018-06-21T05:22:25.063Z,6.20
2018-06-21T05:24:53.496Z,5.47
2018-06-21T05:27:22.042Z,5.20
2018-06-21T05:29:50.477Z,5.40
2018-06-21T05:32:18.942Z,5.87
2018-06-21T05:34:47.420Z,6.00
2018-06-21T05:37:15.904Z,5.90
2018-06-21T05:39:44.359Z,5.13
2018-06-21T05:42:12.891Z,6.53
2018-06-21T05:44:41.368Z,5.40
2018-06-21T05:47:09.816Z,5.43
2018-06-21T05:49:38.290Z,5.27
2018-06-21T05:52:06.780Z,6.40
2018-06-21T05:54:35.246Z,5.40
2018-06-21T05:57:03.731Z,4.83
2018-06-21T05:59:32.178Z,4.90
2018-06-21T06:02:00.773Z,5.33
2018-06-21T06:04:29.238Z,5.33
2018-06-21T06:06:57.760Z,6.57
2018-06-21T06:09:26.284Z,5.67
2018-06-21T06:11:54.779Z,4.80
2018-06-21T06:14:23.255Z,4.63
2018-06-21T06:16:51.718Z,4.87
2018-06-21T06:19:20.210Z,4.70
2018-06-21T06:21:48.703Z,4.80
2018-06-21T06:24:17.230Z,5.07
2018-06-21T06:26:45.704Z,4.67
2018-06-21T06:29:14.172Z,5.30
2018-06-21T06:31:42.612Z,6.10
2018-06-21T06:34:11.150Z,4.70
2018-06-21T06:36:39.211Z,4.93
2018-06-21T06:39:19.563Z,4.83
2018-06-21T06:41:50.204Z,4.80
2018-06-21T06:44:19.245Z,4.47
2018-06-21T06:46:47.701Z,4.03
2018-06-21T06:49:16.169Z,3.57
2018-06-21T06:51:44.702Z,3.30
2018-06-21T06:54:13.160Z,3.50
2018-06-21T06:56:41.417Z,3.10
2018-06-21T06:59:10.002Z,3.40
2018-06-21T07:01:38.499Z,3.17
2018-06-21T07:04:07.029Z,3.60
2018-06-21T07:06:35.461Z,2.80
2018-06-21T07:09:06.365Z,2.83
2018-06-21T07:11:34.809Z,2.90
2018-06-21T07:14:03.359Z,4.20
2018-06-21T07:16:31.848Z,3.47
2018-06-21T07:19:00.298Z,3.53
2018-06-21T07:21:28.776Z,4.10
2018-06-21T07:23:57.218Z,3.80
2018-06-21T07:26:25.669Z,3.70
2018-06-21T07:28:54.259Z,3.20
2018-06-21T07:31:22.748Z,3.37
2018-06-21T07:33:51.374Z,2.93
2018-06-21T07:36:19.812Z,2.23
2018-06-21T07:38:49.017Z,3.20
2018-06-21T07:41:17.515Z,3.17
2018-06-21T07:43:45.970Z,2.80
2018-06-21T07:46:14.435Z,2.70
2018-06-21T07:48:43.114Z,2.50
2018-06-21T07:51:11.565Z,3.20
2018-06-21T07:53:39.993Z,2.30
2018-06-21T07:56:08.507Z,2.60
2018-06-21T07:58:37.021Z,3.70
2018-06-21T08:01:05.491Z,2.37
2018-06-21T08:03:33.944Z,2.50
2018-06-21T08:06:02.421Z,2.70
2018-06-21T08:08:31.828Z,2.50
2018-06-21T08:11:00.513Z,2.70
2018-06-21T08:13:28.963Z,2.60
2018-06-21T08:15:57.901Z,2.77
2018-06-21T08:18:26.180Z,2.63
2018-06-21T08:20:54.392Z,2.80
2018-06-21T08:23:22.969Z,2.93
2018-06-21T08:25:51.424Z,2.80
2018-06-21T08:28:19.905Z,3.07
2018-06-21T08:30:48.386Z,3.00
2018-06-21T08:33:16.615Z,2.57
2018-06-21T08:35:45.067Z,3.10
2018-06-21T08:38:13.261Z,2.47
2018-06-21T08:40:41.777Z,2.30
2018-06-21T08:43:10.230Z,2.60
2018-06-21T08:45:38.756Z,2.80
2018-06-21T08:48:07.243Z,2.87
2018-06-21T08:50:35.746Z,2.43
2018-06-21T08:53:04.312Z,2.60
2018-06-21T08:55:32.808Z,3.03
2018-06-21T08:58:01.372Z,3.10
2018-06-21T09:00:29.922Z,3.00
2018-06-21T09:02:58.368Z,2.60
2018-06-21T09:05:26.847Z,2.60
2018-06-21T09:07:55.329Z,2.87
2018-06-21T09:10:23.815Z,2.77
2018-06-21T09:12:53.286Z,3.37
2018-06-21T09:15:21.824Z,2.60
2018-06-21T09:17:50.268Z,3.30
2018-06-21T09:20:18.798Z,2.40
2018-06-21T09:22:48.340Z,3.37
2018-06-21T09:25:16.934Z,3.47
2018-06-21T09:27:45.082Z,2.40
2018-06-21T09:30:13.640Z,2.90
2018-06-21T09:32:42.144Z,2.77
2018-06-21T09:35:10.598Z,2.77
2018-06-21T09:37:44.393Z,2.67
2018-06-21T09:40:18.170Z,2.60
2018-06-21T09:42:52.416Z,3.40
2018-06-21T09:45:26.204Z,2.83
2018-06-21T09:48:00.143Z,2.77
2018-06-21T09:50:28.697Z,3.10
2018-06-21T09:52:57.204Z,3.40
2018-06-21T09:55:26.068Z,2.67
2018-06-21T09:57:54.537Z,2.43
2018-06-21T10:00:28.224Z,2.97
2018-06-21T10:02:56.742Z,2.17
2018-06-21T10:05:24.908Z,2.83
2018-06-21T10:07:53.348Z,2.63
2018-06-21T10:10:21.932Z,2.03
2018-06-21T10:12:50.402Z,2.63
2018-06-21T10:15:19.141Z,2.97
2018-06-21T10:17:47.651Z,2.93
2018-06-21T10:20:15.861Z,3.00
2018-06-21T10:22:44.997Z,2.67
2018-06-21T10:25:13.680Z,2.70
2018-06-21T10:27:42.284Z,2.50
2018-06-21T10:30:10.739Z,2.77
2018-06-21T10:32:39.207Z,2.37
2018-06-21T10:35:07.735Z,3.40
2018-06-21T10:37:36.137Z,2.93
2018-06-21T10:40:04.665Z,2.80
2018-06-21T10:42:33.154Z,2.00
2018-06-21T10:45:01.627Z,2.43
2018-06-21T10:47:30.159Z,2.67
2018-06-21T10:49:58.648Z,2.60
2018-06-21T10:52:27.112Z,2.97
2018-06-21T10:54:55.564Z,3.40
2018-06-21T10:57:24.120Z,2.93
2018-06-21T10:59:52.594Z,2.90
2018-06-21T11:02:21.051Z,2.03
2018-06-21T11:04:49.526Z,2.00
2018-06-21T11:07:18.017Z,3.07
2018-06-21T11:09:46.465Z,2.40
2018-06-21T11:12:14.666Z,2.50
2018-06-21T11:14:43.177Z,2.60
2018-06-21T11:17:11.659Z,2.27
2018-06-21T11:19:40.126Z,3.23
2018-06-21T11:22:08.570Z,2.80
2018-06-21T11:24:37.061Z,3.20
2018-06-21T11:27:05.544Z,2.87
2018-06-21T11:29:34.028Z,2.47
2018-06-21T11:32:02.496Z,2.43
2018-06-21T11:34:30.984Z,2.63
2018-06-21T11:36:59.522Z,2.70
2018-06-21T11:39:28.039Z,3.00
2018-06-21T11:41:56.491Z,3.37
2018-06-21T11:44:24.941Z,2.90
2018-06-21T11:46:53.131Z,2.90
2018-06-21T11:49:21.575Z,3.77
2018-06-21T11:51:50.043Z,2.77
2018-06-21T11:54:18.494Z,2.70
2018-06-21T11:56:46.949Z,2.73
2018-06-21T11:59:15.460Z,2.57
2018-06-21T12:01:43.673Z,2.67
2018-06-21T12:04:12.134Z,2.30
2018-06-21T12:06:40.591Z,3.00
2018-06-21T12:09:10.665Z,2.93
2018-06-21T12:11:39.123Z,2.80
2018-06-21T12:14:08.064Z,3.00
2018-06-21T12:16:37.162Z,3.20
2018-06-21T12:19:05.791Z,3.43
2018-06-21T12:21:36.039Z,2.80
2018-06-21T12:24:05.269Z,3.30
2018-06-21T12:26:34.180Z,2.87
2018-06-21T12:29:02.696Z,3.40
2018-06-21T12:31:31.150Z,3.60
2018-06-21T12:33:59.685Z,3.40
2018-06-21T12:36:28.195Z,3.43
2018-06-21T12:38:56.793Z,3.53
2018-06-21T12:41:25.280Z,3.73
2018-06-21T12:43:53.786Z,3.07
2018-06-21T12:46:22.264Z,3.20
2018-06-21T12:48:50.848Z,3.83
2018-06-21T12:51:19.414Z,3.03
2018-06-21T12:53:48.856Z,3.33
2018-06-21T12:56:17.374Z,3.33
2018-06-21T12:58:45.836Z,3.37
2018-06-21T13:01:14.335Z,3.30
2018-06-21T13:03:42.853Z,3.10
2018-06-21T13:06:11.347Z,3.20
2018-06-21T13:08:45.171Z,3.47
2018-06-21T13:11:25.081Z,2.97
2018-06-21T13:14:03.618Z,3.33
2018-06-21T13:16:31.778Z,3.07
2018-06-21T13:19:00.259Z,3.70
2018-06-21T13:21:28.931Z,3.20
2018-06-21T13:23:57.674Z,3.67
2018-06-21T13:26:26.193Z,2.97
2018-06-21T13:28:54.709Z,3.30
2018-06-21T13:31:22.912Z,3.37
2018-06-21T13:33:51.650Z,3.27
2018-06-21T13:36:20.128Z,3.30
2018-06-21T13:38:48.699Z,3.10
2018-06-21T13:41:17.193Z,3.47
2018-06-21T13:43:45.830Z,3.00
2018-06-21T13:46:14.030Z,2.97
2018-06-21T13:48:42.650Z,3.83
2018-06-21T13:51:11.308Z,3.17
2018-06-21T13:53:39.746Z,3.20
2018-06-21T13:56:08.260Z,3.17
2018-06-21T13:58:36.462Z,3.53
2018-06-21T14:01:04.984Z,3.33
2018-06-21T14:03:33.474Z,3.60
2018-06-21T14:06:01.971Z,3.60
2018-06-21T14:08:30.545Z,3.40
2018-06-21T14:10:58.962Z,3.63
2018-06-21T14:13:27.441Z,3.83
2018-06-21T14:15:55.922Z,3.33
2018-06-21T14:18:24.454Z,3.50
2018-06-21T14:20:53.057Z,3.30
2018-06-21T14:23:21.478Z,3.20
2018-06-21T14:25:49.952Z,3.90
2018-06-21T14:28:18.439Z,2.87
2018-06-21T14:30:46.991Z,2.80
2018-06-21T14:33:15.664Z,3.97
2018-06-21T14:35:44.150Z,3.30
2018-06-21T14:38:13.142Z,4.07
2018-06-21T14:40:41.869Z,3.37
2018-06-21T14:43:10.319Z,3.50
2018-06-21T14:45:38.816Z,3.57
2018-06-21T14:48:07.387Z,3.43
2018-06-21T14:50:35.819Z,3.97
2018-06-21T14:53:04.594Z,2.80
2018-06-21T14:55:33.155Z,2.97
2018-06-21T14:58:01.867Z,2.93
2018-06-21T15:00:30.443Z,3.30
2018-06-21T15:02:58.948Z,2.70
2018-06-21T15:05:27.406Z,2.63
2018-06-21T15:07:55.919Z,2.73
2018-06-21T15:10:24.404Z,2.27
2018-06-21T15:12:52.889Z,3.23
2018-06-21T15:15:21.421Z,2.23
2018-06-21T15:17:50.051Z,2.33
2018-06-21T15:20:18.665Z,2.93
2018-06-21T15:22:48.080Z,11.27
2018-06-21T15:25:16.634Z,5.60
2018-06-21T15:27:45.093Z,2.27
2018-06-21T15:30:13.318Z,2.73
2018-06-21T15:32:42.557Z,2.40
2018-06-21T15:35:11.024Z,6.13
2018-06-21T15:37:40.372Z,3.27
2018-06-21T15:40:09.001Z,2.50
2018-06-21T15:42:37.549Z,2.50
2018-06-21T15:45:05.880Z,2.43
2018-06-21T15:47:34.374Z,2.60
2018-06-21T15:50:02.865Z,2.60
2018-06-21T15:52:31.367Z,2.40
2018-06-21T15:54:59.892Z,2.87
2018-06-21T15:57:28.561Z,2.13
2018-06-21T15:59:57.233Z,2.60
2018-06-21T16:02:25.797Z,3.37
2018-06-21T16:04:54.477Z,2.43
2018-06-21T16:07:22.997Z,2.90
2018-06-21T16:09:51.467Z,2.97
2018-06-21T16:12:19.999Z,2.57
2018-06-21T16:14:48.553Z,2.80
2018-06-21T16:17:17.220Z,2.80
2018-06-21T16:19:45.766Z,3.23
2018-06-21T16:22:14.273Z,3.20
2018-06-21T16:24:42.770Z,3.10
2018-06-21T16:27:11.348Z,2.87
2018-06-21T16:29:39.834Z,2.70
2018-06-21T16:32:08.387Z,3.00
2018-06-21T16:34:37.686Z,2.63
2018-06-21T16:37:06.272Z,3.63
2018-06-21T16:39:34.806Z,3.13
2018-06-21T16:42:03.468Z,2.93
2018-06-21T16:44:32.007Z,3.90
2018-06-21T16:47:00.546Z,3.00
2018-06-21T16:49:29.150Z,3.67
2018-06-21T16:51:57.647Z,3.30
2018-06-21T16:54:26.320Z,3.33
2018-06-21T16:56:54.959Z,3.17
2018-06-21T16:59:23.503Z,3.07
2018-06-21T17:01:52.024Z,3.40
2018-06-21T17:04:20.626Z,3.67
2018-06-21T17:06:49.202Z,3.57
2018-06-21T17:09:17.698Z,3.60
2018-06-21T17:11:46.819Z,3.40
2018-06-21T17:14:15.448Z,3.60
2018-06-21T17:16:44.038Z,3.50
2018-06-21T17:19:12.607Z,3.77
2018-06-21T17:21:41.784Z,4.07
2018-06-21T17:24:10.307Z,4.00
2018-06-21T17:26:38.916Z,3.63
2018-06-21T17:29:07.369Z,3.60
2018-06-21T17:31:36.055Z,2.90
2018-06-21T17:34:04.571Z,3.00
2018-06-21T17:36:33.179Z,2.83
2018-06-21T17:39:01.759Z,3.63
2018-06-21T17:41:30.385Z,3.80
2018-06-21T17:43:58.737Z,3.60
2018-06-21T17:46:27.359Z,3.30
2018-06-21T17:48:56.075Z,3.67
2018-06-21T17:51:24.786Z,3.03
2018-06-21T17:53:53.410Z,3.23
2018-06-21T17:56:21.870Z,4.17
2018-06-21T17:58:50.400Z,3.10
2018-06-21T18:01:18.931Z,3.27
2018-06-21T18:03:47.602Z,3.03
2018-06-21T18:06:16.256Z,3.13
2018-06-21T18:08:44.882Z,2.90
2018-06-21T18:11:13.448Z,2.70
2018-06-21T18:13:42.140Z,2.90
2018-06-21T18:16:11.038Z,3.07
2018-06-21T18:18:40.504Z,2.93
2018-06-21T18:21:09.117Z,3.70
2018-06-21T18:23:37.956Z,3.53
2018-06-21T18:26:07.001Z,2.90
2018-06-21T18:28:35.649Z,2.93
2018-06-21T18:31:05.219Z,3.50
2018-06-21T18:33:34.204Z,2.90
2018-06-21T18:36:03.013Z,3.03
2018-06-21T18:38:32.026Z,3.20
2018-06-21T18:41:01.326Z,3.10
2018-06-21T18:43:30.133Z,3.30
2018-06-21T18:45:59.034Z,2.57
2018-06-21T18:48:28.905Z,3.30
2018-06-21T18:50:57.222Z,3.00
2018-06-21T18:53:25.969Z,3.13
2018-06-21T18:55:54.486Z,2.63
2018-06-21T18:58:24.312Z,3.13
2018-06-21T19:00:53.084Z,3.57
2018-06-21T19:03:22.528Z,2.63
2018-06-21T19:05:51.785Z,3.30
2018-06-21T19:08:26.085Z,2.90
2018-06-21T19:11:00.173Z,3.07
2018-06-21T19:13:29.444Z,2.70
2018-06-21T19:15:58.376Z,3.10
2018-06-21T19:18:27.709Z,2.80
2018-06-21T19:20:56.921Z,3.03
2018-06-21T19:23:25.725Z,4.00
2018-06-21T19:25:54.760Z,2.73
2018-06-21T19:28:24.806Z,2.40
2018-06-21T19:30:53.989Z,3.47
2018-06-21T19:33:23.215Z,2.80
2018-06-21T19:35:52.633Z,3.43
2018-06-21T19:38:22.633Z,3.60
2018-06-21T19:40:51.766Z,3.63
2018-06-21T19:43:20.351Z,4.00
2018-06-21T19:45:49.839Z,3.90
2018-06-21T19:48:18.560Z,4.43
2018-06-21T19:50:47.305Z,3.80
2018-06-21T19:53:16.089Z,3.73
2018-06-21T19:55:44.666Z,4.27
2018-06-21T19:58:13.412Z,5.23
2018-06-21T20:00:42.102Z,5.07
2018-06-21T20:03:11.603Z,4.00
2018-06-21T20:05:40.496Z,5.60
2018-06-21T20:08:09.440Z,5.27
2018-06-21T20:10:38.268Z,4.80
2018-06-21T20:13:07.166Z,6.33
2018-06-21T20:15:52.089Z,6.33
2018-06-21T20:18:21.536Z,5.57
2018-06-21T20:20:50.290Z,6.60
2018-06-21T20:23:20.208Z,6.60
2018-06-21T20:25:49.226Z,5.73
2018-06-21T20:28:18.581Z,5.90
2018-06-21T20:30:47.181Z,5.90
2018-06-21T20:33:15.785Z,5.40
2018-06-21T20:35:44.393Z,5.40
2018-06-21T20:38:13.058Z,4.90
2018-06-21T20:40:41.609Z,5.60
2018-06-21T20:43:11.401Z,5.33
2018-06-21T20:45:40.136Z,5.43
2018-06-21T20:48:09.292Z,6.17
2018-06-21T20:50:37.859Z,5.57
2018-06-21T20:53:07.175Z,5.73
2018-06-21T20:55:35.789Z,6.60
2018-06-21T20:58:04.326Z,5.97
2018-06-21T21:00:33.074Z,6.47
2018-06-21T21:03:02.484Z,5.50
2018-06-21T21:05:31.109Z,6.30
2018-06-21T21:07:59.211Z,5.50
2018-06-21T21:10:27.704Z,5.90
2018-06-21T21:12:56.366Z,5.80
2018-06-21T21:15:24.924Z,7.47
2018-06-21T21:17:53.478Z,6.40
2018-06-21T21:20:22.052Z,7.10
2018-06-21T21:22:50.522Z,6.50
2018-06-21T21:25:19.116Z,6.77
2018-06-21T21:27:47.600Z,7.07
2018-06-21T21:30:16.150Z,6.23
2018-06-21T21:32:44.602Z,7.10
2018-06-21T21:35:13.252Z,7.17
2018-06-21T21:37:41.732Z,6.30
2018-06-21T21:40:10.286Z,5.70
2018-06-21T21:42:39.324Z,6.37
2018-06-21T21:45:07.983Z,6.70
2018-06-21T21:47:36.664Z,6.57
2018-06-21T21:50:05.136Z,7.00
2018-06-21T21:52:33.672Z,6.70
2018-06-21T21:55:02.112Z,6.40
2018-06-21T21:57:30.754Z,6.20
2018-06-21T21:59:59.193Z,7.23
2018-06-21T22:02:27.639Z,6.90
2018-06-21T22:04:56.083Z,6.50
2018-06-21T22:07:25.527Z,7.77
2018-06-21T22:09:54.018Z,7.70
2018-06-21T22:12:22.545Z,8.37
2018-06-21T22:14:51.005Z,7.17
2018-06-21T22:17:19.479Z,8.83
2018-06-21T22:19:47.963Z,7.77
2018-06-21T22:22:16.441Z,8.50
2018-06-21T22:24:44.863Z,7.87
2018-06-21T22:27:13.329Z,7.20
2018-06-21T22:29:41.810Z,6.23
2018-06-21T22:32:10.196Z,7.10
2018-06-21T22:34:38.721Z,6.40
2018-06-21T22:37:07.290Z,6.87
2018-06-21T22:39:35.749Z,5.90
2018-06-21T22:42:04.192Z,6.73
2018-06-21T22:44:32.400Z,6.03
2018-06-21T22:47:00.855Z,5.70
2018-06-21T22:49:29.306Z,6.63
2018-06-21T22:51:57.758Z,6.70
2018-06-21T22:54:26.565Z,5.10
2018-06-21T22:56:55.033Z,6.13
2018-06-21T22:59:23.510Z,8.13
2018-06-21T23:01:51.981Z,5.97
2018-06-21T23:04:20.429Z,6.97
2018-06-21T23:06:48.710Z,6.03
2018-06-21T23:09:17.147Z,7.50
2018-06-21T23:11:45.661Z,7.70
2018-06-21T23:14:14.108Z,8.60
2018-06-21T23:16:42.557Z,8.10
2018-06-21T23:19:28.720Z,8.80
2018-06-21T23:21:57.233Z,9.63
2018-06-21T23:24:26.247Z,9.70
2018-06-21T23:26:55.045Z,10.00
2018-06-21T23:29:23.729Z,10.40
2018-06-21T23:31:52.596Z,9.57
2018-06-21T23:34:21.379Z,9.73
2018-06-21T23:36:50.433Z,10.07
2018-06-21T23:39:19.510Z,9.50
2018-06-21T23:41:48.064Z,9.93
2018-06-21T23:44:16.559Z,8.93
2018-06-21T23:46:45.044Z,9.40
2018-06-21T23:49:14.104Z,9.40
2018-06-21T23:51:42.569Z,8.03
2018-06-21T23:54:13.275Z,8.03
2018-06-21T23:56:42.817Z,8.00
2018-06-21T23:59:11.323Z,8.00
